sensor_id;sensor_type;location;lat;lon;timestamp;temperature;humidity
1880;DHT22;49285;49.002;8.390;2022-09-09T00:00:19;19.80;99.90
1880;DHT22;49285;49.002;8.390;2022-09-09T00:02:54;19.90;99.90
1880;DHT22;49285;49.002;8.390;2022-09-09T00:05:44;19.80;99.90
1880;DHT22;49285;49.002;8.390;2022-09-09T00:09:13;19.80;99.90
1880;DHT22;49285;49.002;8.390;2022-09-09T00:11:26;19.80;99.90
1880;DHT22;49285;49.002;8.390;2022-09-09T00:13:55;19.80;99.90
1880;DHT22;49285;49.002;8.390;2022-09-09T00:16:25;19.80;99.90
1880;DHT22;49285;49.002;8.390;2022-09-09T00:21:35;19.90;99.90
1880;DHT22;49285;49.002;8.390;2022-09-09T00:24:13;19.90;99.90
1880;DHT22;49285;49.002;8.390;2022-09-09T00:26:52;19.90;99.90
1880;DHT22;49285;49.002;8.390;2022-09-09T00:31:57;19.70;99.90
1880;DHT22;49285;49.002;8.390;2022-09-09T00:34:26;19.70;99.90
1880;DHT22;49285;49.002;8.390;2022-09-09T00:36:53;19.60;99.90
1880;DHT22;49285;49.002;8.390;2022-09-09T00:42:16;19.50;99.90
1880;DHT22;49285;49.002;8.390;2022-09-09T00:46:05;19.70;99.90
1880;DHT22;49285;49.002;8.390;2022-09-09T00:48:00;19.70;99.90
1880;DHT22;49285;49.002;8.390;2022-09-09T00:50:31;19.70;99.90
1880;DHT22;49285;49.002;8.390;2022-09-09T00:53:25;19.70;99.90
1880;DHT22;49285;49.002;8.390;2022-09-09T00:58:27;19.50;99.90
1880;DHT22;49285;49.002;8.390;2022-09-09T01:03:24;19.50;99.90
1880;DHT22;49285;49.002;8.390;2022-09-09T01:08:53;19.60;99.90
1880;DHT22;49285;49.002;8.390;2022-09-09T01:11:26;19.50;99.90
1880;DHT22;49285;49.002;8.390;2022-09-09T01:16:59;19.40;99.90
1880;DHT22;49285;49.002;8.390;2022-09-09T01:27:35;19.30;99.90
1880;DHT22;49285;49.002;8.390;2022-09-09T01:30:08;19.30;99.90
1880;DHT22;49285;49.002;8.390;2022-09-09T01:35:15;19.20;99.90
1880;DHT22;49285;49.002;8.390;2022-09-09T01:37:44;18.90;99.90
1880;DHT22;49285;49.002;8.390;2022-09-09T01:40:10;18.80;99.90
1880;DHT22;49285;49.002;8.390;2022-09-09T01:42:36;18.80;99.90
1880;DHT22;49285;49.002;8.390;2022-09-09T01:45:02;18.70;99.90
1880;DHT22;49285;49.002;8.390;2022-09-09T01:47:28;18.70;99.90
1880;DHT22;49285;49.002;8.390;2022-09-09T01:49:54;18.60;99.90
1880;DHT22;49285;49.002;8.390;2022-09-09T01:52:20;18.50;99.90
1880;DHT22;49285;49.002;8.390;2022-09-09T01:54:45;18.50;99.90
1880;DHT22;49285;49.002;8.390;2022-09-09T01:57:27;18.40;99.90
1880;DHT22;49285;49.002;8.390;2022-09-09T02:05:37;18.50;99.90
1880;DHT22;49285;49.002;8.390;2022-09-09T02:08:08;18.30;99.90
1880;DHT22;49285;49.002;8.390;2022-09-09T02:13:29;18.30;99.90
1880;DHT22;49285;49.002;8.390;2022-09-09T02:21:22;18.30;99.90
1880;DHT22;49285;49.002;8.390;2022-09-09T02:23:50;18.30;99.90
1880;DHT22;49285;49.002;8.390;2022-09-09T02:26:17;18.30;99.90
1880;DHT22;49285;49.002;8.390;2022-09-09T02:28:48;18.30;99.90
1880;DHT22;49285;49.002;8.390;2022-09-09T02:31:18;18.20;99.90
1880;DHT22;49285;49.002;8.390;2022-09-09T02:33:51;18.20;99.90
1880;DHT22;49285;49.002;8.390;2022-09-09T02:36:19;18.30;99.90
1880;DHT22;49285;49.002;8.390;2022-09-09T02:38:47;18.40;99.90
1880;DHT22;49285;49.002;8.390;2022-09-09T02:41:24;18.30;99.90
1880;DHT22;49285;49.002;8.390;2022-09-09T02:43:51;18.40;99.90
1880;DHT22;49285;49.002;8.390;2022-09-09T02:49:06;18.50;99.90
1880;DHT22;49285;49.002;8.390;2022-09-09T02:51:44;18.30;99.90
1880;DHT22;49285;49.002;8.390;2022-09-09T02:56:53;18.30;99.90
1880;DHT22;49285;49.002;8.390;2022-09-09T02:59:21;18.30;99.90
1880;DHT22;49285;49.002;8.390;2022-09-09T03:01:47;18.40;99.90
1880;DHT22;49285;49.002;8.390;2022-09-09T03:04:13;18.20;99.90
1880;DHT22;49285;49.002;8.390;2022-09-09T03:06:39;18.20;99.90
1880;DHT22;49285;49.002;8.390;2022-09-09T03:09:05;18.30;99.90
1880;DHT22;49285;49.002;8.390;2022-09-09T03:11:31;18.30;99.90
1880;DHT22;49285;49.002;8.390;2022-09-09T03:13:56;18.40;99.90
1880;DHT22;49285;49.002;8.390;2022-09-09T03:16:23;18.50;99.90
1880;DHT22;49285;49.002;8.390;2022-09-09T03:18:48;18.50;99.90
1880;DHT22;49285;49.002;8.390;2022-09-09T03:21:14;18.40;99.90
1880;DHT22;49285;49.002;8.390;2022-09-09T03:23:40;18.40;99.90
1880;DHT22;49285;49.002;8.390;2022-09-09T03:26:06;18.40;99.90
1880;DHT22;49285;49.002;8.390;2022-09-09T03:28:32;18.40;99.90
1880;DHT22;49285;49.002;8.390;2022-09-09T03:30:59;18.50;99.90
1880;DHT22;49285;49.002;8.390;2022-09-09T03:33:25;18.50;99.90
1880;DHT22;49285;49.002;8.390;2022-09-09T03:35:51;18.40;99.90
1880;DHT22;49285;49.002;8.390;2022-09-09T03:38:16;18.30;99.90
1880;DHT22;49285;49.002;8.390;2022-09-09T03:40:53;18.30;99.90
1880;DHT22;49285;49.002;8.390;2022-09-09T03:43:23;18.20;99.90
1880;DHT22;49285;49.002;8.390;2022-09-09T03:45:49;18.20;99.90
1880;DHT22;49285;49.002;8.390;2022-09-09T03:48:16;18.20;99.90
1880;DHT22;49285;49.002;8.390;2022-09-09T03:50:50;18.20;99.90
1880;DHT22;49285;49.002;8.390;2022-09-09T03:53:17;18.20;99.90
1880;DHT22;49285;49.002;8.390;2022-09-09T03:55:49;18.20;99.90
1880;DHT22;49285;49.002;8.390;2022-09-09T03:58:16;18.20;99.90
1880;DHT22;49285;49.002;8.390;2022-09-09T04:00:52;18.10;99.90
1880;DHT22;49285;49.002;8.390;2022-09-09T04:03:18;18.20;99.90
1880;DHT22;49285;49.002;8.390;2022-09-09T04:05:43;18.30;99.90
1880;DHT22;49285;49.002;8.390;2022-09-09T04:08:09;18.30;99.90
1880;DHT22;49285;49.002;8.390;2022-09-09T04:10:36;18.30;99.90
1880;DHT22;49285;49.002;8.390;2022-09-09T04:13:03;18.30;99.90
1880;DHT22;49285;49.002;8.390;2022-09-09T04:15:30;18.30;99.90
1880;DHT22;49285;49.002;8.390;2022-09-09T04:17:55;18.20;99.90
1880;DHT22;49285;49.002;8.390;2022-09-09T04:20:21;18.20;99.90
1880;DHT22;49285;49.002;8.390;2022-09-09T04:22:47;18.30;99.90
1880;DHT22;49285;49.002;8.390;2022-09-09T04:25:13;18.30;99.90
1880;DHT22;49285;49.002;8.390;2022-09-09T04:27:39;18.30;99.90
1880;DHT22;49285;49.002;8.390;2022-09-09T04:30:06;18.30;99.90
1880;DHT22;49285;49.002;8.390;2022-09-09T04:32:33;18.30;99.90
1880;DHT22;49285;49.002;8.390;2022-09-09T04:34:59;18.30;99.90
1880;DHT22;49285;49.002;8.390;2022-09-09T04:37:24;18.30;99.90
1880;DHT22;49285;49.002;8.390;2022-09-09T04:39:50;18.30;99.90
1880;DHT22;49285;49.002;8.390;2022-09-09T04:42:15;18.40;99.90
1880;DHT22;49285;49.002;8.390;2022-09-09T04:44:43;18.30;99.90
1880;DHT22;49285;49.002;8.390;2022-09-09T04:47:09;18.30;99.90
1880;DHT22;49285;49.002;8.390;2022-09-09T04:49:35;18.30;99.90
1880;DHT22;49285;49.002;8.390;2022-09-09T04:52:02;18.40;99.90
1880;DHT22;49285;49.002;8.390;2022-09-09T04:54:28;18.40;99.90
1880;DHT22;49285;49.002;8.390;2022-09-09T04:56:54;18.50;99.90
1880;DHT22;49285;49.002;8.390;2022-09-09T04:59:20;18.40;99.90
1880;DHT22;49285;49.002;8.390;2022-09-09T05:01:47;18.40;99.90
1880;DHT22;49285;49.002;8.390;2022-09-09T05:04:12;18.50;99.90
1880;DHT22;49285;49.002;8.390;2022-09-09T05:06:39;18.50;99.90
1880;DHT22;49285;49.002;8.390;2022-09-09T05:09:05;18.40;99.90
1880;DHT22;49285;49.002;8.390;2022-09-09T05:11:32;18.50;99.90
1880;DHT22;49285;49.002;8.390;2022-09-09T05:13:59;18.60;99.90
1880;DHT22;49285;49.002;8.390;2022-09-09T05:16:25;18.60;99.90
1880;DHT22;49285;49.002;8.390;2022-09-09T05:18:51;18.60;99.90
1880;DHT22;49285;49.002;8.390;2022-09-09T05:21:18;18.60;99.90
1880;DHT22;49285;49.002;8.390;2022-09-09T05:23:45;18.60;99.90
1880;DHT22;49285;49.002;8.390;2022-09-09T05:26:19;18.50;99.90
1880;DHT22;49285;49.002;8.390;2022-09-09T05:28:46;18.60;99.90
1880;DHT22;49285;49.002;8.390;2022-09-09T05:31:13;18.60;99.90
1880;DHT22;49285;49.002;8.390;2022-09-09T05:33:40;18.60;99.90
1880;DHT22;49285;49.002;8.390;2022-09-09T05:36:08;18.60;99.90
1880;DHT22;49285;49.002;8.390;2022-09-09T05:38:34;18.60;99.90
1880;DHT22;49285;49.002;8.390;2022-09-09T05:41:02;18.70;99.90
1880;DHT22;49285;49.002;8.390;2022-09-09T05:43:28;18.70;99.90
1880;DHT22;49285;49.002;8.390;2022-09-09T05:46:08;18.70;99.90
1880;DHT22;49285;49.002;8.390;2022-09-09T05:48:38;18.70;99.90
1880;DHT22;49285;49.002;8.390;2022-09-09T05:51:06;18.60;99.90
1880;DHT22;49285;49.002;8.390;2022-09-09T05:53:32;18.70;99.90
1880;DHT22;49285;49.002;8.390;2022-09-09T05:56:07;18.70;99.90
1880;DHT22;49285;49.002;8.390;2022-09-09T05:58:36;18.70;99.90
1880;DHT22;49285;49.002;8.390;2022-09-09T06:01:10;18.90;99.90
1880;DHT22;49285;49.002;8.390;2022-09-09T06:03:38;18.90;99.90
1880;DHT22;49285;49.002;8.390;2022-09-09T06:06:06;18.90;99.90
1880;DHT22;49285;49.002;8.390;2022-09-09T06:08:36;19.00;99.90
1880;DHT22;49285;49.002;8.390;2022-09-09T06:11:08;19.00;99.90
1880;DHT22;49285;49.002;8.390;2022-09-09T06:13:34;18.90;99.90
1880;DHT22;49285;49.002;8.390;2022-09-09T06:16:02;19.10;99.90
1880;DHT22;49285;49.002;8.390;2022-09-09T06:18:28;19.00;99.90
1880;DHT22;49285;49.002;8.390;2022-09-09T06:20:56;19.10;99.90
1880;DHT22;49285;49.002;8.390;2022-09-09T06:23:22;19.20;99.90
1880;DHT22;49285;49.002;8.390;2022-09-09T06:25:48;19.20;99.90
1880;DHT22;49285;49.002;8.390;2022-09-09T06:28:14;19.40;99.90
1880;DHT22;49285;49.002;8.390;2022-09-09T06:30:42;19.40;99.90
1880;DHT22;49285;49.002;8.390;2022-09-09T06:33:08;19.30;99.90
1880;DHT22;49285;49.002;8.390;2022-09-09T06:35:34;19.40;99.90
1880;DHT22;49285;49.002;8.390;2022-09-09T06:38:00;19.50;99.90
1880;DHT22;49285;49.002;8.390;2022-09-09T06:40:25;19.50;99.90
1880;DHT22;49285;49.002;8.390;2022-09-09T06:42:51;19.60;99.90
1880;DHT22;49285;49.002;8.390;2022-09-09T06:45:17;19.50;99.90
1880;DHT22;49285;49.002;8.390;2022-09-09T06:47:43;19.60;99.90
1880;DHT22;49285;49.002;8.390;2022-09-09T06:50:09;19.60;99.90
1880;DHT22;49285;49.002;8.390;2022-09-09T06:52:36;19.70;99.90
1880;DHT22;49285;49.002;8.390;2022-09-09T06:55:02;19.70;99.90
1880;DHT22;49285;49.002;8.390;2022-09-09T06:57:28;19.70;99.90
1880;DHT22;49285;49.002;8.390;2022-09-09T06:59:53;19.70;99.90
1880;DHT22;49285;49.002;8.390;2022-09-09T07:02:19;19.70;99.90
1880;DHT22;49285;49.002;8.390;2022-09-09T07:04:45;19.70;99.90
1880;DHT22;49285;49.002;8.390;2022-09-09T07:07:10;19.70;99.90
1880;DHT22;49285;49.002;8.390;2022-09-09T07:09:38;19.60;99.90
1880;DHT22;49285;49.002;8.390;2022-09-09T07:12:05;19.60;99.90
1880;DHT22;49285;49.002;8.390;2022-09-09T07:14:31;19.70;99.90
1880;DHT22;49285;49.002;8.390;2022-09-09T07:16:58;19.70;99.90
1880;DHT22;49285;49.002;8.390;2022-09-09T07:19:23;19.80;99.90
1880;DHT22;49285;49.002;8.390;2022-09-09T07:21:49;19.90;99.90
1880;DHT22;49285;49.002;8.390;2022-09-09T07:24:15;20.00;99.90
1880;DHT22;49285;49.002;8.390;2022-09-09T07:26:41;20.00;99.90
1880;DHT22;49285;49.002;8.390;2022-09-09T07:29:07;20.00;99.90
1880;DHT22;49285;49.002;8.390;2022-09-09T07:31:35;20.00;99.90
1880;DHT22;49285;49.002;8.390;2022-09-09T07:34:02;20.00;99.90
1880;DHT22;49285;49.002;8.390;2022-09-09T07:36:30;20.00;99.90
1880;DHT22;49285;49.002;8.390;2022-09-09T07:38:58;20.00;99.90
1880;DHT22;49285;49.002;8.390;2022-09-09T07:41:31;20.00;99.90
1880;DHT22;49285;49.002;8.390;2022-09-09T07:43:57;20.10;99.90
1880;DHT22;49285;49.002;8.390;2022-09-09T07:46:26;20.10;99.90
1880;DHT22;49285;49.002;8.390;2022-09-09T07:48:54;20.10;99.90
1880;DHT22;49285;49.002;8.390;2022-09-09T07:51:32;20.10;99.90
1880;DHT22;49285;49.002;8.390;2022-09-09T07:54:04;20.10;99.90
1880;DHT22;49285;49.002;8.390;2022-09-09T07:56:31;20.20;99.90
1880;DHT22;49285;49.002;8.390;2022-09-09T07:58:58;20.10;99.90
1880;DHT22;49285;49.002;8.390;2022-09-09T08:01:29;20.00;99.90
1880;DHT22;49285;49.002;8.390;2022-09-09T08:03:59;20.00;99.90
1880;DHT22;49285;49.002;8.390;2022-09-09T08:06:25;20.10;99.90
1880;DHT22;49285;49.002;8.390;2022-09-09T08:08:52;20.30;99.90
1880;DHT22;49285;49.002;8.390;2022-09-09T08:11:18;20.30;99.90
1880;DHT22;49285;49.002;8.390;2022-09-09T08:13:44;20.40;99.90
1880;DHT22;49285;49.002;8.390;2022-09-09T08:16:14;20.30;99.90
1880;DHT22;49285;49.002;8.390;2022-09-09T08:18:41;20.50;99.90
1880;DHT22;49285;49.002;8.390;2022-09-09T08:21:14;20.70;99.90
1880;DHT22;49285;49.002;8.390;2022-09-09T08:23:43;20.80;99.90
1880;DHT22;49285;49.002;8.390;2022-09-09T08:26:21;21.00;99.90
1880;DHT22;49285;49.002;8.390;2022-09-09T08:28:50;21.00;99.90
1880;DHT22;49285;49.002;8.390;2022-09-09T08:31:19;20.90;99.90
1880;DHT22;49285;49.002;8.390;2022-09-09T08:33:45;20.80;99.90
1880;DHT22;49285;49.002;8.390;2022-09-09T08:36:19;20.70;99.90
1880;DHT22;49285;49.002;8.390;2022-09-09T08:38:49;20.60;99.90
1880;DHT22;49285;49.002;8.390;2022-09-09T08:43:58;20.40;99.90
1880;DHT22;49285;49.002;8.390;2022-09-09T08:52:24;20.60;99.90
1880;DHT22;49285;49.002;8.390;2022-09-09T08:54:51;20.60;99.90
1880;DHT22;49285;49.002;8.390;2022-09-09T08:57:25;20.60;99.90
1880;DHT22;49285;49.002;8.390;2022-09-09T08:59:52;20.60;99.90
1880;DHT22;49285;49.002;8.390;2022-09-09T09:05:23;20.20;99.90
1880;DHT22;49285;49.002;8.390;2022-09-09T09:08:08;20.10;99.90
1880;DHT22;49285;49.002;8.390;2022-09-09T09:10:55;20.10;99.90
1880;DHT22;49285;49.002;8.390;2022-09-09T09:13:38;20.10;99.90
1880;DHT22;49285;49.002;8.390;2022-09-09T09:16:34;20.00;99.90
1880;DHT22;49285;49.002;8.390;2022-09-09T09:19:02;20.10;99.90
1880;DHT22;49285;49.002;8.390;2022-09-09T09:21:42;20.20;99.90
1880;DHT22;49285;49.002;8.390;2022-09-09T09:24:20;20.10;99.90
1880;DHT22;49285;49.002;8.390;2022-09-09T09:26:49;20.10;99.90
1880;DHT22;49285;49.002;8.390;2022-09-09T09:29:17;20.00;99.90
1880;DHT22;49285;49.002;8.390;2022-09-09T09:31:56;20.20;99.90
1880;DHT22;49285;49.002;8.390;2022-09-09T09:34:26;20.20;99.90
1880;DHT22;49285;49.002;8.390;2022-09-09T09:36:56;20.20;99.90
1880;DHT22;49285;49.002;8.390;2022-09-09T09:39:31;20.30;99.90
1880;DHT22;49285;49.002;8.390;2022-09-09T09:42:12;20.30;99.90
1880;DHT22;49285;49.002;8.390;2022-09-09T09:44:41;20.40;99.90
1880;DHT22;49285;49.002;8.390;2022-09-09T09:47:16;20.50;99.90
1880;DHT22;49285;49.002;8.390;2022-09-09T09:50:00;20.50;99.90
1880;DHT22;49285;49.002;8.390;2022-09-09T09:52:29;20.50;99.90
1880;DHT22;49285;49.002;8.390;2022-09-09T09:54:57;20.50;99.90
1880;DHT22;49285;49.002;8.390;2022-09-09T09:57:26;20.50;99.90
1880;DHT22;49285;49.002;8.390;2022-09-09T10:00:22;20.60;99.90
1880;DHT22;49285;49.002;8.390;2022-09-09T10:02:48;20.60;99.90
1880;DHT22;49285;49.002;8.390;2022-09-09T10:05:22;20.70;99.90
1880;DHT22;49285;49.002;8.390;2022-09-09T10:13:24;20.80;99.90
1880;DHT22;49285;49.002;8.390;2022-09-09T10:15:54;20.70;99.90
1880;DHT22;49285;49.002;8.390;2022-09-09T10:18:50;20.70;99.90
1880;DHT22;49285;49.002;8.390;2022-09-09T10:21:32;20.80;99.90
1880;DHT22;49285;49.002;8.390;2022-09-09T10:29:36;21.10;99.90
1880;DHT22;49285;49.002;8.390;2022-09-09T10:32:37;21.30;99.90
1880;DHT22;49285;49.002;8.390;2022-09-09T10:40:31;21.40;99.90
1880;DHT22;49285;49.002;8.390;2022-09-09T10:43:21;21.30;99.90
1880;DHT22;49285;49.002;8.390;2022-09-09T10:56:29;21.30;99.90
1880;DHT22;49285;49.002;8.390;2022-09-09T10:59:02;21.20;99.90
1880;DHT22;49285;49.002;8.390;2022-09-09T11:01:51;21.20;99.90
1880;DHT22;49285;49.002;8.390;2022-09-09T11:04:23;21.20;99.90
1880;DHT22;49285;49.002;8.390;2022-09-09T11:06:55;21.20;99.90
1880;DHT22;49285;49.002;8.390;2022-09-09T11:09:31;21.30;99.90
1880;DHT22;49285;49.002;8.390;2022-09-09T11:12:00;21.40;99.90
1880;DHT22;49285;49.002;8.390;2022-09-09T11:14:42;21.40;99.90
1880;DHT22;49285;49.002;8.390;2022-09-09T11:17:47;21.50;99.90
1880;DHT22;49285;49.002;8.390;2022-09-09T11:20:14;21.70;99.90
1880;DHT22;49285;49.002;8.390;2022-09-09T11:23:03;21.80;99.90
1880;DHT22;49285;49.002;8.390;2022-09-09T11:25:35;22.00;99.90
1880;DHT22;49285;49.002;8.390;2022-09-09T11:31:06;22.40;99.90
1880;DHT22;49285;49.002;8.390;2022-09-09T11:34:08;22.50;99.90
1880;DHT22;49285;49.002;8.390;2022-09-09T11:37:08;22.60;99.90
1880;DHT22;49285;49.002;8.390;2022-09-09T11:42:30;22.50;99.90
1880;DHT22;49285;49.002;8.390;2022-09-09T11:44:56;22.60;99.90
1880;DHT22;49285;49.002;8.390;2022-09-09T11:47:30;22.60;99.90
1880;DHT22;49285;49.002;8.390;2022-09-09T11:50:26;22.50;99.90
1880;DHT22;49285;49.002;8.390;2022-09-09T11:53:18;22.50;99.90
1880;DHT22;49285;49.002;8.390;2022-09-09T11:55:59;22.50;99.90
1880;DHT22;49285;49.002;8.390;2022-09-09T11:58:27;22.40;99.90
1880;DHT22;49285;49.002;8.390;2022-09-09T12:00:57;22.60;99.90
1880;DHT22;49285;49.002;8.390;2022-09-09T12:03:45;23.10;99.90
1880;DHT22;49285;49.002;8.390;2022-09-09T12:08:53;24.10;99.90
1880;DHT22;49285;49.002;8.390;2022-09-09T12:11:27;24.60;99.90
1880;DHT22;49285;49.002;8.390;2022-09-09T12:13:54;25.00;99.90
1880;DHT22;49285;49.002;8.390;2022-09-09T12:16:37;25.50;99.90
1880;DHT22;49285;49.002;8.390;2022-09-09T12:19:06;25.50;99.90
1880;DHT22;49285;49.002;8.390;2022-09-09T12:22:04;25.00;99.90
1880;DHT22;49285;49.002;8.390;2022-09-09T12:24:55;24.80;99.90
1880;DHT22;49285;49.002;8.390;2022-09-09T12:27:31;24.70;99.90
1880;DHT22;49285;49.002;8.390;2022-09-09T12:30:09;24.40;99.90
1880;DHT22;49285;49.002;8.390;2022-09-09T12:32:36;24.10;99.90
1880;DHT22;49285;49.002;8.390;2022-09-09T12:35:11;23.90;99.90
1880;DHT22;49285;49.002;8.390;2022-09-09T12:40:20;23.50;99.90
1880;DHT22;49285;49.002;8.390;2022-09-09T12:42:46;23.60;99.90
1880;DHT22;49285;49.002;8.390;2022-09-09T12:45:21;23.60;99.90
1880;DHT22;49285;49.002;8.390;2022-09-09T12:47:57;24.00;99.90
1880;DHT22;49285;49.002;8.390;2022-09-09T12:50:33;24.50;99.90
1880;DHT22;49285;49.002;8.390;2022-09-09T12:53:09;24.70;99.90
1880;DHT22;49285;49.002;8.390;2022-09-09T12:55:37;24.60;99.90
1880;DHT22;49285;49.002;8.390;2022-09-09T12:58:04;24.50;99.90
1880;DHT22;49285;49.002;8.390;2022-09-09T13:00:32;24.30;99.90
1880;DHT22;49285;49.002;8.390;2022-09-09T13:03:14;24.10;99.90
1880;DHT22;49285;49.002;8.390;2022-09-09T13:05:41;24.00;99.90
1880;DHT22;49285;49.002;8.390;2022-09-09T13:08:12;23.70;99.90
1880;DHT22;49285;49.002;8.390;2022-09-09T13:10:44;23.50;99.90
1880;DHT22;49285;49.002;8.390;2022-09-09T13:13:35;23.40;99.90
1880;DHT22;49285;49.002;8.390;2022-09-09T13:16:02;23.20;99.90
1880;DHT22;49285;49.002;8.390;2022-09-09T13:18:32;23.00;99.90
1880;DHT22;49285;49.002;8.390;2022-09-09T13:20:58;22.90;99.90
1880;DHT22;49285;49.002;8.390;2022-09-09T13:23:29;22.70;99.90
1880;DHT22;49285;49.002;8.390;2022-09-09T13:25:56;22.80;99.90
1880;DHT22;49285;49.002;8.390;2022-09-09T13:28:27;23.70;99.90
1880;DHT22;49285;49.002;8.390;2022-09-09T13:31:23;24.30;99.90
1880;DHT22;49285;49.002;8.390;2022-09-09T13:33:49;25.20;99.90
1880;DHT22;49285;49.002;8.390;2022-09-09T13:36:14;26.30;99.90
1880;DHT22;49285;49.002;8.390;2022-09-09T13:41:46;27.10;99.90
1880;DHT22;49285;49.002;8.390;2022-09-09T13:47:03;26.00;99.90
1880;DHT22;49285;49.002;8.390;2022-09-09T13:49:30;25.50;99.90
1880;DHT22;49285;49.002;8.390;2022-09-09T13:52:13;25.40;99.90
1880;DHT22;49285;49.002;8.390;2022-09-09T13:54:40;25.10;99.90
1880;DHT22;49285;49.002;8.390;2022-09-09T13:57:17;24.80;99.90
1880;DHT22;49285;49.002;8.390;2022-09-09T13:59:44;24.70;99.90
1880;DHT22;49285;49.002;8.390;2022-09-09T14:02:10;24.70;99.90
1880;DHT22;49285;49.002;8.390;2022-09-09T14:04:35;24.60;99.90
1880;DHT22;49285;49.002;8.390;2022-09-09T14:07:01;24.50;99.90
1880;DHT22;49285;49.002;8.390;2022-09-09T14:09:27;24.40;99.90
1880;DHT22;49285;49.002;8.390;2022-09-09T14:11:53;24.20;99.90
1880;DHT22;49285;49.002;8.390;2022-09-09T14:14:20;23.80;99.90
1880;DHT22;49285;49.002;8.390;2022-09-09T14:16:46;23.20;99.90
1880;DHT22;49285;49.002;8.390;2022-09-09T14:19:12;22.40;99.90
1880;DHT22;49285;49.002;8.390;2022-09-09T14:21:38;21.50;99.90
1880;DHT22;49285;49.002;8.390;2022-09-09T14:24:04;20.70;99.90
1880;DHT22;49285;49.002;8.390;2022-09-09T14:26:30;20.40;99.90
1880;DHT22;49285;49.002;8.390;2022-09-09T14:28:56;20.00;99.90
1880;DHT22;49285;49.002;8.390;2022-09-09T14:31:22;19.80;99.90
1880;DHT22;49285;49.002;8.390;2022-09-09T14:33:48;19.70;99.90
1880;DHT22;49285;49.002;8.390;2022-09-09T14:36:13;19.60;99.90
1880;DHT22;49285;49.002;8.390;2022-09-09T14:38:40;19.60;99.90
1880;DHT22;49285;49.002;8.390;2022-09-09T14:41:10;19.60;99.90
1880;DHT22;49285;49.002;8.390;2022-09-09T14:43:39;19.60;99.90
1880;DHT22;49285;49.002;8.390;2022-09-09T14:46:06;19.60;99.90
1880;DHT22;49285;49.002;8.390;2022-09-09T14:48:32;19.60;99.90
1880;DHT22;49285;49.002;8.390;2022-09-09T14:51:05;19.70;99.90
1880;DHT22;49285;49.002;8.390;2022-09-09T14:53:31;19.90;99.90
1880;DHT22;49285;49.002;8.390;2022-09-09T14:56:07;19.50;99.90
1880;DHT22;49285;49.002;8.390;2022-09-09T14:58:33;19.50;99.90
1880;DHT22;49285;49.002;8.390;2022-09-09T15:01:11;19.50;99.90
1880;DHT22;49285;49.002;8.390;2022-09-09T15:03:41;19.50;99.90
1880;DHT22;49285;49.002;8.390;2022-09-09T15:06:16;19.60;99.90
1880;DHT22;49285;49.002;8.390;2022-09-09T15:08:43;19.50;99.90
1880;DHT22;49285;49.002;8.390;2022-09-09T15:11:10;19.70;99.90
1880;DHT22;49285;49.002;8.390;2022-09-09T15:13:37;19.80;99.90
1880;DHT22;49285;49.002;8.390;2022-09-09T15:16:13;20.00;99.90
1880;DHT22;49285;49.002;8.390;2022-09-09T15:18:39;20.10;99.90
1880;DHT22;49285;49.002;8.390;2022-09-09T15:21:12;20.10;99.90
1880;DHT22;49285;49.002;8.390;2022-09-09T15:23:39;20.40;99.90
1880;DHT22;49285;49.002;8.390;2022-09-09T15:26:07;20.60;99.90
1880;DHT22;49285;49.002;8.390;2022-09-09T15:28:34;20.90;99.90
1880;DHT22;49285;49.002;8.390;2022-09-09T15:31:09;21.10;99.90
1880;DHT22;49285;49.002;8.390;2022-09-09T15:33:36;21.40;99.90
1880;DHT22;49285;49.002;8.390;2022-09-09T15:36:35;21.40;99.90
1880;DHT22;49285;49.002;8.390;2022-09-09T15:38:59;21.50;99.90
1880;DHT22;49285;49.002;8.390;2022-09-09T15:41:26;21.70;99.90
1880;DHT22;49285;49.002;8.390;2022-09-09T15:43:54;21.70;99.90
1880;DHT22;49285;49.002;8.390;2022-09-09T15:46:33;21.90;99.90
1880;DHT22;49285;49.002;8.390;2022-09-09T15:49:12;22.00;99.90
1880;DHT22;49285;49.002;8.390;2022-09-09T15:51:43;22.10;99.90
1880;DHT22;49285;49.002;8.390;2022-09-09T15:54:11;22.10;99.90
1880;DHT22;49285;49.002;8.390;2022-09-09T15:56:37;22.00;99.90
1880;DHT22;49285;49.002;8.390;2022-09-09T15:59:03;22.00;99.90
1880;DHT22;49285;49.002;8.390;2022-09-09T16:01:30;21.80;99.90
1880;DHT22;49285;49.002;8.390;2022-09-09T16:03:57;21.60;99.90
1880;DHT22;49285;49.002;8.390;2022-09-09T16:06:24;21.70;99.90
1880;DHT22;49285;49.002;8.390;2022-09-09T16:08:51;21.50;99.90
1880;DHT22;49285;49.002;8.390;2022-09-09T16:11:21;21.30;99.90
1880;DHT22;49285;49.002;8.390;2022-09-09T16:13:48;21.10;99.90
1880;DHT22;49285;49.002;8.390;2022-09-09T16:16:15;21.10;99.90
1880;DHT22;49285;49.002;8.390;2022-09-09T16:18:46;20.90;99.90
1880;DHT22;49285;49.002;8.390;2022-09-09T16:21:23;20.90;99.90
1880;DHT22;49285;49.002;8.390;2022-09-09T16:23:50;20.70;99.90
1880;DHT22;49285;49.002;8.390;2022-09-09T16:26:17;20.60;99.90
1880;DHT22;49285;49.002;8.390;2022-09-09T16:28:43;20.50;99.90
1880;DHT22;49285;49.002;8.390;2022-09-09T16:31:10;20.40;99.90
1880;DHT22;49285;49.002;8.390;2022-09-09T16:33:37;20.40;99.90
1880;DHT22;49285;49.002;8.390;2022-09-09T16:36:07;20.40;99.90
1880;DHT22;49285;49.002;8.390;2022-09-09T16:38:33;20.30;99.90
1880;DHT22;49285;49.002;8.390;2022-09-09T16:41:01;20.40;99.90
1880;DHT22;49285;49.002;8.390;2022-09-09T16:43:27;20.30;99.90
1880;DHT22;49285;49.002;8.390;2022-09-09T16:45:53;20.20;99.90
1880;DHT22;49285;49.002;8.390;2022-09-09T16:48:18;20.20;99.90
1880;DHT22;49285;49.002;8.390;2022-09-09T16:50:44;20.10;99.90
1880;DHT22;49285;49.002;8.390;2022-09-09T16:53:11;20.20;99.90
1880;DHT22;49285;49.002;8.390;2022-09-09T16:55:41;20.20;99.90
1880;DHT22;49285;49.002;8.390;2022-09-09T16:58:09;20.10;99.90
1880;DHT22;49285;49.002;8.390;2022-09-09T17:00:35;20.20;99.90
1880;DHT22;49285;49.002;8.390;2022-09-09T17:03:01;20.20;99.90
1880;DHT22;49285;49.002;8.390;2022-09-09T17:05:28;20.40;99.90
1880;DHT22;49285;49.002;8.390;2022-09-09T17:07:54;20.40;99.90
1880;DHT22;49285;49.002;8.390;2022-09-09T17:10:23;20.40;99.90
1880;DHT22;49285;49.002;8.390;2022-09-09T17:12:48;20.40;99.90
1880;DHT22;49285;49.002;8.390;2022-09-09T17:15:14;20.30;99.90
1880;DHT22;49285;49.002;8.390;2022-09-09T17:17:40;20.40;99.90
1880;DHT22;49285;49.002;8.390;2022-09-09T17:20:10;20.30;99.90
1880;DHT22;49285;49.002;8.390;2022-09-09T17:22:36;20.30;99.90
1880;DHT22;49285;49.002;8.390;2022-09-09T17:25:02;20.30;99.90
1880;DHT22;49285;49.002;8.390;2022-09-09T17:27:29;20.20;99.90
1880;DHT22;49285;49.002;8.390;2022-09-09T17:29:57;20.00;99.90
1880;DHT22;49285;49.002;8.390;2022-09-09T17:32:23;20.00;99.90
1880;DHT22;49285;49.002;8.390;2022-09-09T17:34:49;20.00;99.90
1880;DHT22;49285;49.002;8.390;2022-09-09T17:37:14;20.00;99.90
1880;DHT22;49285;49.002;8.390;2022-09-09T17:39:40;20.00;99.90
1880;DHT22;49285;49.002;8.390;2022-09-09T17:42:05;20.00;99.90
1880;DHT22;49285;49.002;8.390;2022-09-09T17:44:33;19.90;99.90
1880;DHT22;49285;49.002;8.390;2022-09-09T17:46:58;19.80;99.90
1880;DHT22;49285;49.002;8.390;2022-09-09T17:49:24;19.90;99.90